createdAt,value
2022-07-30T00:01:38.859Z,17.72
2022-07-30T00:04:27.356Z,15.72
2022-07-30T00:07:15.146Z,16.43
2022-07-30T00:10:05.260Z,15.02
2022-07-30T00:12:53.167Z,17.56
2022-07-30T00:15:40.761Z,16.82
2022-07-30T00:18:28.355Z,17.47
2022-07-30T00:21:30.319Z,16.61
2022-07-30T00:24:24.423Z,17.44
2022-07-30T00:27:14.846Z,14.42
2022-07-30T00:30:06.173Z,16.90
2022-07-30T00:32:53.761Z,17.34
2022-07-30T00:35:41.299Z,15.90
2022-07-30T00:38:29.394Z,16.55
2022-07-30T00:41:16.940Z,13.46
2022-07-30T00:44:04.547Z,16.75
2022-07-30T00:46:52.320Z,15.69
2022-07-30T00:49:44.185Z,17.07
2022-07-30T00:52:32.567Z,17.08
2022-07-30T00:55:20.754Z,17.01
2022-07-30T00:58:08.380Z,14.03
2022-07-30T01:00:56.816Z,14.77
2022-07-30T01:03:44.309Z,14.70
2022-07-30T01:06:31.692Z,15.50
2022-07-30T01:09:19.066Z,14.89
2022-07-30T01:12:08.224Z,14.73
2022-07-30T01:14:58.292Z,15.50
2022-07-30T01:17:52.742Z,15.89
2022-07-30T01:21:05.847Z,16.62
2022-07-30T01:23:53.789Z,15.03
2022-07-30T01:26:41.681Z,15.64
2022-07-30T01:29:31.790Z,16.36
2022-07-30T01:32:23.871Z,15.81
2022-07-30T01:35:12.300Z,16.18
2022-07-30T01:38:01.213Z,16.35
2022-07-30T01:40:51.901Z,15.18
2022-07-30T01:43:40.003Z,15.54
2022-07-30T01:46:28.010Z,14.86
2022-07-30T01:49:16.329Z,15.99
2022-07-30T01:52:04.896Z,14.93
2022-07-30T01:54:54.700Z,15.54
2022-07-30T01:57:44.302Z,15.52
2022-07-30T02:00:35.806Z,16.31
2022-07-30T02:03:23.428Z,15.98
2022-07-30T02:06:19.088Z,16.39
2022-07-30T02:09:11.085Z,15.79
2022-07-30T02:12:19.372Z,16.18
2022-07-30T02:15:25.473Z,16.44
2022-07-30T02:18:39.677Z,16.24
2022-07-30T02:21:36.714Z,15.86
2022-07-30T02:24:29.193Z,15.19
2022-07-30T02:27:20.303Z,16.13
2022-07-30T02:30:08.759Z,15.99
2022-07-30T02:33:00.555Z,15.85
2022-07-30T02:35:50.239Z,15.12
2022-07-30T02:38:38.444Z,16.31
2022-07-30T02:41:28.838Z,15.54
2022-07-30T02:44:19.464Z,15.11
2022-07-30T02:47:07.937Z,16.13
2022-07-30T02:50:15.631Z,16.13
2022-07-30T02:53:05.692Z,14.71
2022-07-30T02:55:55.771Z,15.76
2022-07-30T02:58:46.845Z,14.83
2022-07-30T03:01:35.085Z,15.36
2022-07-30T03:04:22.769Z,15.21
2022-07-30T03:07:10.898Z,16.17
2022-07-30T03:10:00.578Z,15.80
2022-07-30T03:12:50.618Z,16.34
2022-07-30T03:15:44.319Z,16.35
2022-07-30T03:18:34.193Z,16.35
2022-07-30T03:21:25.400Z,14.68
2022-07-30T03:24:14.229Z,15.32
2022-07-30T03:27:04.005Z,16.36
2022-07-30T03:29:54.299Z,14.62
2022-07-30T03:32:42.940Z,13.33
2022-07-30T03:35:32.326Z,16.22
2022-07-30T03:38:20.582Z,12.91
2022-07-30T03:41:08.640Z,15.14
2022-07-30T03:43:56.546Z,14.39
2022-07-30T03:46:45.014Z,15.79
2022-07-30T03:49:33.651Z,16.12
2022-07-30T03:52:21.446Z,16.09
2022-07-30T03:55:10.744Z,14.14
2022-07-30T03:58:11.806Z,15.89
2022-07-30T04:00:59.509Z,15.29
2022-07-30T04:03:48.086Z,14.11
2022-07-30T04:06:42.948Z,15.70
2022-07-30T04:09:30.919Z,15.20
2022-07-30T04:12:26.842Z,13.12
2022-07-30T04:16:16.709Z,14.61
2022-07-30T04:18:22.903Z,15.63
2022-07-30T04:21:16.177Z,15.66
2022-07-30T04:24:05.944Z,15.47
2022-07-30T04:26:54.407Z,14.33
2022-07-30T04:29:41.800Z,15.86
2022-07-30T04:32:29.149Z,15.97
2022-07-30T04:35:50.341Z,16.12
2022-07-30T04:38:31.654Z,16.30
2022-07-30T04:41:19.063Z,15.39
2022-07-30T04:44:39.040Z,16.66
2022-07-30T04:47:49.520Z,16.39
2022-07-30T04:50:41.903Z,15.93
2022-07-30T04:53:32.671Z,16.44
2022-07-30T04:56:22.223Z,16.96
2022-07-30T04:59:10.471Z,17.22
2022-07-30T05:01:59.323Z,16.97
2022-07-30T05:04:47.649Z,16.89
2022-07-30T05:07:37.550Z,15.79
2022-07-30T05:10:26.011Z,17.89
2022-07-30T05:13:16.416Z,18.25
2022-07-30T05:16:04.168Z,17.89
2022-07-30T05:18:51.890Z,16.21
2022-07-30T05:21:42.482Z,21.22
2022-07-30T05:24:29.908Z,22.59
2022-07-30T05:27:20.532Z,23.36
2022-07-30T05:30:08.741Z,23.24
2022-07-30T05:33:03.751Z,25.05
2022-07-30T05:36:02.895Z,25.64
2022-07-30T05:38:50.879Z,26.34
2022-07-30T05:41:47.132Z,26.45
2022-07-30T05:44:39.560Z,26.97
2022-07-30T05:47:27.697Z,27.29
2022-07-30T05:50:15.849Z,27.69
2022-07-30T05:53:03.283Z,27.02
2022-07-30T05:56:09.136Z,28.72
2022-07-30T05:59:25.681Z,28.61
2022-07-30T06:02:28.117Z,29.03
2022-07-30T06:05:33.418Z,29.04
2022-07-30T06:08:22.196Z,30.06
2022-07-30T06:11:09.652Z,29.87
2022-07-30T06:13:59.643Z,30.88
2022-07-30T06:16:47.364Z,30.03
2022-07-30T06:19:57.060Z,31.99
2022-07-30T06:22:45.842Z,31.50
2022-07-30T06:25:41.136Z,31.47
2022-07-30T06:28:37.525Z,30.54
2022-07-30T06:31:31.422Z,29.79
2022-07-30T06:34:18.871Z,28.50
2022-07-30T06:37:06.323Z,28.24
2022-07-30T06:39:58.059Z,29.27
2022-07-30T06:43:02.854Z,30.40
2022-07-30T06:45:56.683Z,28.93
2022-07-30T06:48:46.156Z,29.22
2022-07-30T06:51:34.002Z,29.05
2022-07-30T06:54:22.317Z,29.83
2022-07-30T06:57:27.547Z,29.30
2022-07-30T07:00:15.723Z,29.37
2022-07-30T07:03:11.267Z,32.15
2022-07-30T07:05:59.292Z,32.21
2022-07-30T07:08:47.769Z,32.63
2022-07-30T07:11:39.523Z,34.28
2022-07-30T07:14:30.820Z,33.65
2022-07-30T07:17:18.661Z,34.24
2022-07-30T07:20:18.153Z,33.77
2022-07-30T07:23:12.411Z,33.60
2022-07-30T07:26:01.506Z,33.72
2022-07-30T07:28:49.679Z,32.65
2022-07-30T07:32:06.199Z,31.79
2022-07-30T07:34:45.238Z,32.36
2022-07-30T07:37:34.003Z,32.89
2022-07-30T07:40:21.537Z,34.16
2022-07-30T07:43:12.326Z,34.01
2022-07-30T07:46:00.855Z,34.14
2022-07-30T07:48:51.864Z,35.05
2022-07-30T07:51:50.266Z,35.75
2022-07-30T07:54:39.765Z,34.21
2022-07-30T07:57:27.339Z,33.78
2022-07-30T08:00:20.174Z,31.70
2022-07-30T08:03:07.634Z,33.60
2022-07-30T08:06:05.612Z,35.54
2022-07-30T08:09:12.797Z,35.77
2022-07-30T08:12:20.433Z,36.56
2022-07-30T08:15:26.350Z,35.80
2022-07-30T08:18:32.176Z,34.40
2022-07-30T08:21:52.066Z,35.38
2022-07-30T08:24:39.687Z,35.88
2022-07-30T08:27:27.558Z,36.33
2022-07-30T08:30:15.142Z,37.03
2022-07-30T08:33:02.930Z,36.06
2022-07-30T08:35:59.020Z,36.36
2022-07-30T08:38:50.549Z,36.92
2022-07-30T08:41:37.900Z,37.51
2022-07-30T08:44:26.543Z,37.90
2022-07-30T08:47:19.276Z,36.31
2022-07-30T08:50:39.608Z,34.97
2022-07-30T08:53:58.035Z,36.67
2022-07-30T08:56:45.966Z,37.09
2022-07-30T09:00:00.095Z,36.42
2022-07-30T09:02:40.904Z,37.28
2022-07-30T09:05:28.317Z,35.85
2022-07-30T09:08:18.645Z,34.07
2022-07-30T09:11:06.234Z,32.68
2022-07-30T09:13:54.402Z,30.68
2022-07-30T09:16:45.190Z,30.80
2022-07-30T09:19:32.553Z,32.33
2022-07-30T09:22:20.249Z,32.51
2022-07-30T09:25:41.759Z,32.43
2022-07-30T09:28:47.850Z,32.76
2022-07-30T09:32:08.213Z,34.77
2022-07-30T09:35:14.909Z,35.44
2022-07-30T09:38:46.338Z,36.19
2022-07-30T09:41:56.891Z,33.99
2022-07-30T09:44:45.478Z,34.61
2022-07-30T09:47:35.062Z,34.31
2022-07-30T09:50:29.966Z,34.91
2022-07-30T09:53:22.490Z,34.23
2022-07-30T09:56:25.340Z,34.49
2022-07-30T09:59:35.074Z,32.95
2022-07-30T10:02:33.166Z,34.25
2022-07-30T10:05:39.603Z,32.95
2022-07-30T10:08:46.561Z,32.14
2022-07-30T10:11:35.744Z,31.42
2022-07-30T10:14:30.745Z,29.66
2022-07-30T10:17:20.006Z,30.48
2022-07-30T10:20:26.948Z,30.62
2022-07-30T10:23:50.782Z,29.02
2022-07-30T10:26:56.892Z,28.49
2022-07-30T10:30:09.569Z,29.49
2022-07-30T10:33:01.572Z,28.94
2022-07-30T10:35:49.552Z,26.37
2022-07-30T10:38:41.351Z,27.75
2022-07-30T10:41:47.554Z,27.85
2022-07-30T10:44:55.465Z,27.67
2022-07-30T10:47:44.831Z,26.55
2022-07-30T10:50:51.384Z,28.05
2022-07-30T10:53:42.652Z,27.06
2022-07-30T10:56:30.384Z,27.68
2022-07-30T10:59:17.911Z,26.25
2022-07-30T11:02:09.446Z,27.26
2022-07-30T11:05:32.093Z,27.45
2022-07-30T11:08:42.593Z,27.34
2022-07-30T11:12:15.718Z,27.58
2022-07-30T11:14:46.336Z,27.43
2022-07-30T11:18:01.078Z,27.54
2022-07-30T11:21:20.656Z,27.56
2022-07-30T11:24:45.351Z,27.31
2022-07-30T11:27:46.035Z,26.60
2022-07-30T11:30:55.587Z,27.02
2022-07-30T11:33:44.137Z,26.52
2022-07-30T11:36:33.655Z,26.45
2022-07-30T11:39:22.157Z,24.71
2022-07-30T11:42:31.172Z,26.78
2022-07-30T11:45:18.714Z,26.98
2022-07-30T11:48:12.605Z,27.03
2022-07-30T11:51:03.944Z,26.04
2022-07-30T11:54:06.945Z,25.61
2022-07-30T11:57:03.691Z,27.08
2022-07-30T11:59:55.983Z,25.82
2022-07-30T12:02:43.752Z,25.85
2022-07-30T12:05:31.456Z,27.48
2022-07-30T12:08:35.348Z,25.70
2022-07-30T12:11:24.273Z,25.76
2022-07-30T12:14:14.167Z,25.81
2022-07-30T12:17:01.842Z,27.16
2022-07-30T12:19:49.568Z,27.08
2022-07-30T12:22:37.377Z,25.16
2022-07-30T12:25:25.257Z,27.60
2022-07-30T12:28:20.696Z,26.83
2022-07-30T12:31:08.664Z,26.54
2022-07-30T12:34:00.529Z,27.90
2022-07-30T12:36:51.000Z,26.66
2022-07-30T12:39:40.497Z,27.99
2022-07-30T12:42:29.350Z,28.07
2022-07-30T12:45:51.613Z,27.26
2022-07-30T12:49:02.772Z,27.04
2022-07-30T12:52:00.527Z,27.80
2022-07-30T12:55:10.342Z,26.80
2022-07-30T12:58:12.148Z,27.70
2022-07-30T13:00:59.542Z,27.72
2022-07-30T13:03:47.099Z,27.57
2022-07-30T13:06:43.645Z,28.29
2022-07-30T13:09:31.089Z,28.57
2022-07-30T13:12:18.465Z,28.65
2022-07-30T13:15:20.715Z,28.64
2022-07-30T13:18:07.908Z,28.28
2022-07-30T13:20:56.354Z,27.90
2022-07-30T13:23:43.979Z,28.48
2022-07-30T13:26:31.701Z,28.16
2022-07-30T13:29:18.894Z,27.67
2022-07-30T13:32:06.467Z,27.12
2022-07-30T13:34:53.755Z,26.85
2022-07-30T13:37:41.205Z,27.29
2022-07-30T13:40:39.801Z,27.22
2022-07-30T13:43:39.483Z,27.91
2022-07-30T13:46:26.787Z,27.04
2022-07-30T13:49:35.317Z,27.78
2022-07-30T13:52:23.157Z,27.73
2022-07-30T13:55:10.535Z,27.21
2022-07-30T13:57:58.114Z,27.46
2022-07-30T14:00:47.713Z,27.68
2022-07-30T14:03:38.019Z,28.47
2022-07-30T14:06:25.684Z,25.44
2022-07-30T14:09:13.143Z,27.52
2022-07-30T14:12:00.410Z,28.49
2022-07-30T14:14:47.711Z,28.31
2022-07-30T14:17:35.336Z,28.43
2022-07-30T14:20:23.262Z,28.30
2022-07-30T14:23:10.736Z,28.08
2022-07-30T14:25:58.085Z,27.51
2022-07-30T14:28:45.484Z,26.99
2022-07-30T14:31:38.082Z,27.56
2022-07-30T14:34:25.631Z,27.10
2022-07-30T14:37:14.655Z,27.44
2022-07-30T14:40:02.165Z,28.11
2022-07-30T14:42:49.609Z,28.38
2022-07-30T14:45:36.958Z,28.07
2022-07-30T14:48:24.205Z,28.10
2022-07-30T14:51:18.645Z,27.53
2022-07-30T14:54:07.697Z,27.95
2022-07-30T14:56:58.476Z,27.49
2022-07-30T14:59:46.088Z,28.20
2022-07-30T15:02:59.486Z,26.88
2022-07-30T15:05:51.686Z,27.38
2022-07-30T15:08:39.700Z,26.62
2022-07-30T15:11:27.118Z,26.28
2022-07-30T15:14:14.600Z,26.96
2022-07-30T15:17:10.325Z,26.71
2022-07-30T15:19:57.645Z,27.13
2022-07-30T15:22:45.166Z,28.02
2022-07-30T15:25:32.734Z,27.86
2022-07-30T15:28:20.056Z,27.27
2022-07-30T15:31:07.311Z,27.25
2022-07-30T15:33:54.710Z,27.56
2022-07-30T15:36:42.725Z,26.26
2022-07-30T15:39:32.419Z,27.32
2022-07-30T15:42:19.813Z,27.06
2022-07-30T15:45:17.134Z,25.52
2022-07-30T15:48:05.804Z,25.89
2022-07-30T15:51:03.207Z,26.56
2022-07-30T15:53:50.895Z,27.41
2022-07-30T15:56:38.221Z,27.31
2022-07-30T15:59:25.603Z,26.98
2022-07-30T16:02:12.972Z,26.85
2022-07-30T16:05:00.620Z,28.08
2022-07-30T16:07:49.210Z,28.28
2022-07-30T16:10:36.498Z,28.13
2022-07-30T16:13:23.927Z,27.80
2022-07-30T16:16:11.296Z,27.15
2022-07-30T16:18:58.569Z,27.30
2022-07-30T16:21:45.995Z,27.59
2022-07-30T16:24:33.637Z,28.23
2022-07-30T16:27:20.851Z,27.69
2022-07-30T16:30:09.261Z,25.67
2022-07-30T16:32:56.542Z,26.91
2022-07-30T16:35:48.629Z,26.08
2022-07-30T16:38:37.880Z,26.04
2022-07-30T16:41:25.195Z,26.84
2022-07-30T16:44:12.452Z,26.19
2022-07-30T16:47:00.862Z,26.56
2022-07-30T16:49:48.069Z,26.14
2022-07-30T16:52:35.400Z,25.73
2022-07-30T16:55:23.015Z,25.86
2022-07-30T16:58:10.965Z,26.05
2022-07-30T17:00:58.360Z,26.64
2022-07-30T17:03:45.677Z,26.20
2022-07-30T17:06:32.929Z,26.77
2022-07-30T17:09:20.513Z,25.09
2022-07-30T17:12:11.814Z,26.95
2022-07-30T17:14:59.568Z,26.95
2022-07-30T17:17:46.836Z,26.54
2022-07-30T17:20:34.390Z,26.45
2022-07-30T17:23:21.774Z,25.95
2022-07-30T17:26:10.726Z,25.30
2022-07-30T17:28:58.128Z,25.63
2022-07-30T17:31:46.140Z,26.27
2022-07-30T17:34:33.645Z,25.96
2022-07-30T17:37:21.688Z,25.70
2022-07-30T17:40:28.176Z,25.23
2022-07-30T17:43:16.922Z,25.01
2022-07-30T17:46:04.244Z,25.26
2022-07-30T17:48:51.889Z,25.84
2022-07-30T17:51:39.809Z,24.49
2022-07-30T17:54:27.337Z,25.61
2022-07-30T17:57:15.647Z,24.85
2022-07-30T18:00:04.137Z,25.25
2022-07-30T18:02:51.605Z,24.75
2022-07-30T18:05:38.969Z,25.41
2022-07-30T18:08:29.266Z,25.36
2022-07-30T18:11:16.863Z,24.77
2022-07-30T18:14:04.253Z,23.91
2022-07-30T18:16:52.214Z,24.95
2022-07-30T18:19:40.777Z,24.54
2022-07-30T18:22:29.208Z,24.95
2022-07-30T18:25:18.891Z,24.91
2022-07-30T18:28:06.829Z,24.28
2022-07-30T18:30:55.097Z,24.56
2022-07-30T18:33:42.789Z,24.70
2022-07-30T18:36:30.413Z,23.87
2022-07-30T18:39:18.072Z,23.41
2022-07-30T18:42:06.578Z,21.81
2022-07-30T18:45:00.051Z,24.35
2022-07-30T18:47:48.922Z,23.25
2022-07-30T18:50:36.352Z,22.54
2022-07-30T18:53:24.595Z,24.15
2022-07-30T18:56:12.632Z,23.73
2022-07-30T18:59:00.487Z,23.23
2022-07-30T19:01:49.601Z,22.16
2022-07-30T19:04:37.441Z,22.34
2022-07-30T19:07:25.290Z,23.94
2022-07-30T19:10:13.446Z,23.92
2022-07-30T19:13:01.680Z,22.14
2022-07-30T19:15:50.644Z,22.69
2022-07-30T19:18:38.434Z,23.64
2022-07-30T19:21:25.834Z,23.92
2022-07-30T19:24:13.357Z,23.01
2022-07-30T19:27:00.756Z,22.44
2022-07-30T19:29:48.415Z,22.06
2022-07-30T19:32:35.992Z,22.53
2022-07-30T19:35:24.054Z,22.30
2022-07-30T19:38:11.773Z,22.30
2022-07-30T19:41:01.676Z,23.05
2022-07-30T19:46:58.485Z,23.06
2022-07-30T19:49:47.509Z,23.60
2022-07-30T19:52:34.879Z,23.60
2022-07-30T19:55:35.010Z,22.65
2022-07-30T19:58:25.004Z,22.77
2022-07-30T20:01:14.490Z,22.05
2022-07-30T20:04:02.088Z,22.76
2022-07-30T20:06:49.597Z,23.23
2022-07-30T20:09:39.020Z,23.39
2022-07-30T20:12:30.408Z,21.56
2022-07-30T20:15:18.240Z,23.19
2022-07-30T20:18:05.732Z,22.78
2022-07-30T20:20:55.896Z,22.39
2022-07-30T20:23:45.406Z,22.74
2022-07-30T20:26:33.858Z,22.92
2022-07-30T20:29:22.450Z,22.83
2022-07-30T20:32:09.812Z,21.59
2022-07-30T20:34:57.358Z,21.93
2022-07-30T20:37:55.636Z,22.80
2022-07-30T20:40:46.714Z,22.99
2022-07-30T20:43:34.190Z,22.86
2022-07-30T20:46:35.104Z,21.57
2022-07-30T20:49:28.869Z,21.73
2022-07-30T20:52:22.807Z,18.12
2022-07-30T20:55:14.419Z,22.11
2022-07-30T20:58:11.216Z,22.63
2022-07-30T21:01:04.783Z,22.84
2022-07-30T21:03:53.469Z,22.84
2022-07-30T21:06:47.724Z,22.65
2022-07-30T21:09:49.969Z,22.84
2022-07-30T21:12:40.017Z,22.78
2022-07-30T21:15:27.375Z,22.27
2022-07-30T21:18:19.616Z,22.36
2022-07-30T21:21:08.508Z,21.99
2022-07-30T21:23:59.371Z,22.72
2022-07-30T21:26:49.479Z,21.44
2022-07-30T21:29:36.922Z,22.68
2022-07-30T21:32:25.711Z,22.07
2022-07-30T21:35:13.243Z,22.06
2022-07-30T21:38:03.039Z,21.82
2022-07-30T21:40:50.391Z,22.61
2022-07-30T21:43:38.005Z,21.99
2022-07-30T21:46:26.957Z,21.17
2022-07-30T21:49:14.442Z,22.10
2022-07-30T21:52:02.553Z,22.02
2022-07-30T21:54:50.514Z,21.64
2022-07-30T21:57:37.844Z,20.55
2022-07-30T22:04:03.807Z,22.21
2022-07-30T22:06:38.385Z,20.74
2022-07-30T22:09:34.265Z,21.68
2022-07-30T22:12:22.216Z,22.09
2022-07-30T22:15:16.045Z,22.01
2022-07-30T22:18:03.684Z,21.96
2022-07-30T22:20:52.728Z,21.39
2022-07-30T22:23:40.265Z,20.88
2022-07-30T22:26:42.733Z,21.06
2022-07-30T22:29:35.692Z,21.08
2022-07-30T22:32:25.193Z,21.84
2022-07-30T22:35:16.384Z,21.44
2022-07-30T22:38:04.853Z,21.73
2022-07-30T22:40:52.234Z,21.66
2022-07-30T22:43:40.862Z,20.32
2022-07-30T22:46:30.966Z,21.62
2022-07-30T22:49:24.048Z,21.62
2022-07-30T22:52:29.220Z,21.40
2022-07-30T22:55:17.198Z,20.80
2022-07-30T22:58:09.725Z,21.08
2022-07-30T23:00:57.647Z,20.65
2022-07-30T23:03:44.982Z,20.85
2022-07-30T23:06:33.181Z,20.34
2022-07-30T23:09:21.066Z,21.15
2022-07-30T23:12:08.733Z,21.45
2022-07-30T23:12:16.563Z,23.71
2022-07-30T23:14:56.236Z,20.92
2022-07-30T23:17:43.752Z,21.42
2022-07-30T23:20:31.055Z,20.47
2022-07-30T23:23:18.279Z,20.40
2022-07-30T23:26:05.782Z,20.84
2022-07-30T23:28:53.106Z,20.71
2022-07-30T23:31:40.586Z,20.33
2022-07-30T23:34:27.820Z,20.01
2022-07-30T23:37:15.047Z,20.35
2022-07-30T23:40:02.505Z,20.52
2022-07-30T23:42:51.005Z,20.18
2022-07-30T23:45:38.611Z,20.41
2022-07-30T23:48:26.401Z,21.25
2022-07-30T23:51:13.803Z,20.73
2022-07-30T23:54:01.970Z,19.16
2022-07-30T23:56:54.974Z,21.11
2022-07-30T23:59:42.321Z,19.66
